createdAt,value
2022-09-24T00:02:07.046Z,12.50
2022-09-24T00:04:53.790Z,12.50
2022-09-24T00:07:41.594Z,12.60
2022-09-24T00:10:27.969Z,12.60
2022-09-24T00:13:17.136Z,12.50
2022-09-24T00:16:05.342Z,12.70
2022-09-24T00:18:52.261Z,12.90
2022-09-24T00:21:39.305Z,12.90
2022-09-24T00:24:44.881Z,12.60
2022-09-24T00:27:31.367Z,12.40
2022-09-24T00:30:17.794Z,12.30
2022-09-24T00:33:04.434Z,12.30
2022-09-24T00:35:52.334Z,12.20
2022-09-24T00:38:38.953Z,12.30
2022-09-24T00:41:28.623Z,12.40
2022-09-24T00:44:54.135Z,12.60
2022-09-24T00:47:42.114Z,12.60
2022-09-24T00:50:32.310Z,12.50
2022-09-24T00:53:23.223Z,12.50
2022-09-24T00:56:12.371Z,12.70
2022-09-24T00:59:02.532Z,12.70
2022-09-24T01:01:50.245Z,12.90
2022-09-24T01:04:37.190Z,13.00
2022-09-24T01:07:23.451Z,12.90
2022-09-24T01:10:10.719Z,12.90
2022-09-24T01:13:06.908Z,12.90
2022-09-24T01:16:02.064Z,13.00
2022-09-24T01:18:55.266Z,12.90
2022-09-24T01:21:47.468Z,12.70
2022-09-24T01:24:51.259Z,12.50
2022-09-24T01:27:56.369Z,12.40
2022-09-24T01:30:47.120Z,12.40
2022-09-24T01:33:37.252Z,12.40
2022-09-24T01:36:24.378Z,12.50
2022-09-24T01:39:12.730Z,12.50
2022-09-24T01:41:59.980Z,12.60
2022-09-24T01:44:49.005Z,12.50
2022-09-24T01:47:39.817Z,12.40
2022-09-24T01:50:29.766Z,12.30
2022-09-24T01:53:20.441Z,12.20
2022-09-24T01:56:11.864Z,12.10
2022-09-24T01:59:02.718Z,12.20
2022-09-24T02:01:56.574Z,12.20
2022-09-24T02:04:50.238Z,12.40
2022-09-24T02:07:40.788Z,12.50
2022-09-24T02:10:31.686Z,12.60
2022-09-24T02:13:20.728Z,12.50
2022-09-24T02:16:10.073Z,12.20
2022-09-24T02:18:59.748Z,12.20
2022-09-24T02:21:48.124Z,12.20
2022-09-24T02:24:42.703Z,12.20
2022-09-24T02:27:29.522Z,12.20
2022-09-24T02:30:15.973Z,12.10
2022-09-24T02:33:02.597Z,12.20
2022-09-24T02:35:48.335Z,12.30
2022-09-24T02:38:36.133Z,12.40
2022-09-24T02:41:25.170Z,12.50
2022-09-24T02:44:12.007Z,12.50
2022-09-24T02:46:58.907Z,12.40
2022-09-24T02:49:46.160Z,12.40
2022-09-24T02:52:32.614Z,12.40
2022-09-24T02:55:20.395Z,12.40
2022-09-24T02:58:07.172Z,12.30
2022-09-24T03:00:54.927Z,12.30
2022-09-24T03:03:41.249Z,12.30
2022-09-24T03:06:28.037Z,12.30
2022-09-24T03:09:14.429Z,12.40
2022-09-24T03:12:02.634Z,12.40
2022-09-24T03:14:49.309Z,12.40
2022-09-24T03:17:36.744Z,12.30
2022-09-24T03:20:24.159Z,12.50
2022-09-24T03:23:10.677Z,12.60
2022-09-24T03:25:58.975Z,12.60
2022-09-24T03:28:47.061Z,12.60
2022-09-24T03:31:32.627Z,12.40
2022-09-24T03:34:19.562Z,12.40
2022-09-24T03:37:05.873Z,12.40
2022-09-24T03:39:52.229Z,12.50
2022-09-24T03:42:38.626Z,12.30
2022-09-24T03:45:26.189Z,12.30
2022-09-24T03:48:12.686Z,12.40
2022-09-24T03:51:03.634Z,12.40
2022-09-24T03:53:49.883Z,12.40
2022-09-24T03:56:36.276Z,12.30
2022-09-24T03:59:22.794Z,12.20
2022-09-24T04:02:11.752Z,12.20
2022-09-24T04:04:58.790Z,12.20
2022-09-24T04:07:45.857Z,12.20
2022-09-24T04:10:33.051Z,12.30
2022-09-24T04:13:20.002Z,12.50
2022-09-24T04:16:07.037Z,12.50
2022-09-24T04:18:56.062Z,12.50
2022-09-24T04:21:42.508Z,12.30
2022-09-24T04:24:28.949Z,12.30
2022-09-24T04:27:15.567Z,12.40
2022-09-24T04:30:01.993Z,12.20
2022-09-24T04:32:49.007Z,12.00
2022-09-24T04:35:37.380Z,11.90
2022-09-24T04:38:24.106Z,11.70
2022-09-24T04:41:10.931Z,11.70
2022-09-24T04:43:57.925Z,11.50
2022-09-24T04:46:44.275Z,11.50
2022-09-24T04:49:31.109Z,11.40
2022-09-24T04:52:19.130Z,11.50
2022-09-24T04:55:07.129Z,11.50
2022-09-24T04:57:55.999Z,11.60
2022-09-24T05:00:43.217Z,11.80
2022-09-24T05:03:29.577Z,12.00
2022-09-24T05:06:16.060Z,11.90
2022-09-24T05:09:03.676Z,11.70
2022-09-24T05:11:50.128Z,11.70
2022-09-24T05:14:37.002Z,11.70
2022-09-24T05:17:23.382Z,11.60
2022-09-24T05:20:11.209Z,11.60
2022-09-24T05:22:57.697Z,11.70
2022-09-24T05:26:08.071Z,11.70
2022-09-24T05:28:54.701Z,11.60
2022-09-24T05:31:41.367Z,11.70
2022-09-24T05:34:28.250Z,11.70
2022-09-24T05:37:15.673Z,11.60
2022-09-24T05:40:23.231Z,11.50
2022-09-24T05:43:10.886Z,11.60
2022-09-24T05:45:58.666Z,11.60
2022-09-24T05:48:45.423Z,11.60
2022-09-24T05:51:31.633Z,11.80
2022-09-24T05:54:19.137Z,11.90
2022-09-24T05:57:05.626Z,12.00
2022-09-24T05:59:53.986Z,12.00
2022-09-24T06:02:40.664Z,12.10
2022-09-24T06:05:28.904Z,12.10
2022-09-24T06:08:16.278Z,12.10
2022-09-24T06:11:03.698Z,12.10
2022-09-24T06:13:50.961Z,12.10
2022-09-24T06:16:38.620Z,12.20
2022-09-24T06:19:25.538Z,12.10
2022-09-24T06:22:11.789Z,12.20
2022-09-24T06:24:58.048Z,12.20
2022-09-24T06:27:44.426Z,12.30
2022-09-24T06:30:33.671Z,12.40
2022-09-24T06:33:22.048Z,12.30
2022-09-24T06:36:08.909Z,12.30
2022-09-24T06:38:55.421Z,12.40
2022-09-24T06:41:42.053Z,12.60
2022-09-24T06:44:28.833Z,12.60
2022-09-24T06:47:15.305Z,12.80
2022-09-24T06:50:02.948Z,12.80
2022-09-24T06:52:49.321Z,12.80
2022-09-24T06:55:36.093Z,12.70
2022-09-24T06:58:23.693Z,12.70
2022-09-24T07:01:10.251Z,12.80
2022-09-24T07:03:57.094Z,12.90
2022-09-24T07:07:02.226Z,13.10
2022-09-24T07:09:48.749Z,13.10
2022-09-24T07:12:36.791Z,13.10
2022-09-24T07:15:23.455Z,13.00
2022-09-24T07:18:10.599Z,13.00
2022-09-24T07:20:57.743Z,13.00
2022-09-24T07:23:45.457Z,13.10
2022-09-24T07:26:31.791Z,13.10
2022-09-24T07:29:18.437Z,13.20
2022-09-24T07:32:05.578Z,13.30
2022-09-24T07:34:54.118Z,13.40
2022-09-24T07:37:40.510Z,13.60
2022-09-24T07:40:29.224Z,13.80
2022-09-24T07:43:15.741Z,14.00
2022-09-24T07:46:02.338Z,14.10
2022-09-24T07:48:49.160Z,14.20
2022-09-24T07:51:36.304Z,14.30
2022-09-24T07:54:22.912Z,14.30
2022-09-24T07:57:13.733Z,14.20
2022-09-24T08:00:00.383Z,14.30
2022-09-24T08:02:46.808Z,14.50
2022-09-24T08:05:33.897Z,14.70
2022-09-24T08:08:20.730Z,14.80
2022-09-24T08:11:07.937Z,14.80
2022-09-24T08:13:57.015Z,14.80
2022-09-24T08:16:43.202Z,14.80
2022-09-24T08:19:30.872Z,14.60
2022-09-24T08:22:17.180Z,14.70
2022-09-24T08:25:04.331Z,14.70
2022-09-24T08:27:50.661Z,14.80
2022-09-24T08:30:39.726Z,14.90
2022-09-24T08:33:26.373Z,14.80
2022-09-24T08:36:12.917Z,14.60
2022-09-24T08:38:59.595Z,14.40
2022-09-24T08:41:54.621Z,14.30
2022-09-24T08:45:00.705Z,14.30
2022-09-24T08:47:52.653Z,14.50
2022-09-24T08:50:47.525Z,14.80
2022-09-24T08:53:44.796Z,14.90
2022-09-24T08:56:35.325Z,15.10
2022-09-24T08:59:28.514Z,15.30
2022-09-24T09:02:26.658Z,15.20
2022-09-24T09:05:27.407Z,15.10
2022-09-24T09:08:46.181Z,15.20
2022-09-24T09:11:32.790Z,15.30
2022-09-24T09:14:22.661Z,15.40
2022-09-24T09:17:20.044Z,15.50
2022-09-24T09:20:12.422Z,15.60
2022-09-24T09:23:05.000Z,15.70
2022-09-24T09:25:55.615Z,15.70
2022-09-24T09:28:42.201Z,15.70
2022-09-24T09:31:40.582Z,15.70
2022-09-24T09:34:41.738Z,15.70
2022-09-24T09:37:34.922Z,15.70
2022-09-24T09:40:33.403Z,15.70
2022-09-24T09:43:21.414Z,15.90
2022-09-24T09:46:15.542Z,15.90
2022-09-24T09:49:06.421Z,15.70
2022-09-24T09:51:57.398Z,15.80
2022-09-24T09:54:44.225Z,16.10
2022-09-24T09:57:32.480Z,16.30
2022-09-24T10:00:27.396Z,16.40
2022-09-24T10:03:24.445Z,16.50
2022-09-24T10:06:13.697Z,16.70
2022-09-24T10:09:14.187Z,16.60
2022-09-24T10:12:15.278Z,16.60
2022-09-24T10:15:06.126Z,16.60
2022-09-24T10:17:55.395Z,16.90
2022-09-24T10:20:46.708Z,16.90
2022-09-24T10:23:37.455Z,17.00
2022-09-24T10:26:37.775Z,16.80
2022-09-24T10:29:48.524Z,16.70
2022-09-24T10:32:36.817Z,16.80
2022-09-24T10:35:27.627Z,16.80
2022-09-24T10:38:19.789Z,16.70
2022-09-24T10:41:17.098Z,16.80
2022-09-24T10:44:07.209Z,16.80
2022-09-24T10:47:21.746Z,16.80
2022-09-24T10:50:31.656Z,16.90
2022-09-24T10:53:27.785Z,16.90
2022-09-24T10:56:24.607Z,17.00
2022-09-24T10:59:36.933Z,17.10
2022-09-24T11:02:42.950Z,17.10
2022-09-24T11:05:34.169Z,17.20
2022-09-24T11:08:33.531Z,17.20
2022-09-24T11:11:31.888Z,17.30
2022-09-24T11:14:41.676Z,17.50
2022-09-24T11:17:34.226Z,17.60
2022-09-24T11:20:34.363Z,17.70
2022-09-24T11:23:41.753Z,17.80
2022-09-24T11:26:37.608Z,17.50
2022-09-24T11:29:37.219Z,17.20
2022-09-24T11:32:30.393Z,17.10
2022-09-24T11:35:33.418Z,17.20
2022-09-24T11:38:32.881Z,17.30
2022-09-24T11:41:30.535Z,17.50
2022-09-24T11:44:43.402Z,17.70
2022-09-24T11:47:45.606Z,17.90
2022-09-24T11:50:47.410Z,17.90
2022-09-24T11:53:43.273Z,18.00
2022-09-24T11:56:34.909Z,18.10
2022-09-24T11:59:36.377Z,18.00
2022-09-24T12:02:27.345Z,18.00
2022-09-24T12:05:22.107Z,17.90
2022-09-24T12:08:16.121Z,17.90
2022-09-24T12:11:07.768Z,18.10
2022-09-24T12:13:59.229Z,18.10
2022-09-24T12:16:50.107Z,18.00
2022-09-24T12:19:43.077Z,17.80
2022-09-24T12:22:32.383Z,17.80
2022-09-24T12:25:18.942Z,18.00
2022-09-24T12:28:07.301Z,18.20
2022-09-24T12:31:16.144Z,18.30
2022-09-24T12:34:11.537Z,18.30
2022-09-24T12:37:03.735Z,18.30
2022-09-24T12:39:57.552Z,18.10
2022-09-24T12:42:46.863Z,18.00
2022-09-24T12:45:36.437Z,17.80
2022-09-24T12:48:25.442Z,17.90
2022-09-24T12:51:13.845Z,17.80
2022-09-24T12:54:06.823Z,17.80
2022-09-24T12:56:53.495Z,17.80
2022-09-24T12:59:51.993Z,17.80
2022-09-24T13:02:48.231Z,17.90
2022-09-24T13:05:47.201Z,17.80
2022-09-24T13:08:38.866Z,17.90
2022-09-24T13:11:33.517Z,17.80
2022-09-24T13:14:22.709Z,17.80
2022-09-24T13:17:09.333Z,17.90
2022-09-24T13:20:01.898Z,18.00
2022-09-24T13:22:57.912Z,18.20
2022-09-24T13:25:56.479Z,18.60
2022-09-24T13:28:55.371Z,19.00
2022-09-24T13:31:47.638Z,19.30
2022-09-24T13:34:35.130Z,19.30
2022-09-24T13:37:29.338Z,19.10
2022-09-24T13:40:20.419Z,18.90
2022-09-24T13:43:13.347Z,18.50
2022-09-24T13:46:00.959Z,18.20
2022-09-24T13:48:52.009Z,18.20
2022-09-24T13:51:41.317Z,18.20
2022-09-24T13:54:34.871Z,18.20
2022-09-24T13:57:24.552Z,18.30
2022-09-24T14:00:16.607Z,18.30
2022-09-24T14:03:05.654Z,18.50
2022-09-24T14:05:52.657Z,18.50
2022-09-24T14:08:42.299Z,18.40
2022-09-24T14:11:30.089Z,18.30
2022-09-24T14:14:19.764Z,18.10
2022-09-24T14:17:10.524Z,18.10
2022-09-24T14:19:58.240Z,17.90
2022-09-24T14:22:47.385Z,17.90
2022-09-24T14:25:37.323Z,17.90
2022-09-24T14:28:26.617Z,17.90
2022-09-24T14:31:13.490Z,17.80
2022-09-24T14:34:03.737Z,17.90
2022-09-24T14:36:51.129Z,18.00
2022-09-24T14:39:41.206Z,18.00
2022-09-24T14:42:31.213Z,17.90
2022-09-24T14:45:22.085Z,17.90
2022-09-24T14:48:20.626Z,17.80
2022-09-24T14:51:22.607Z,17.80
2022-09-24T14:54:23.669Z,17.70
2022-09-24T14:57:12.151Z,17.80
2022-09-24T14:59:58.796Z,17.80
2022-09-24T15:02:52.098Z,17.70
2022-09-24T15:05:38.986Z,17.70
2022-09-24T15:08:28.754Z,17.60
2022-09-24T15:11:18.866Z,17.60
2022-09-24T15:14:24.889Z,17.60
2022-09-24T15:17:21.717Z,17.60
2022-09-24T15:20:11.997Z,17.50
2022-09-24T15:22:58.320Z,17.50
2022-09-24T15:25:45.020Z,17.50
2022-09-24T15:28:32.110Z,17.60
2022-09-24T15:31:18.829Z,17.50
2022-09-24T15:34:05.752Z,17.40
2022-09-24T15:36:56.244Z,17.40
2022-09-24T15:39:48.594Z,17.40
2022-09-24T15:42:34.823Z,17.30
2022-09-24T15:45:23.004Z,17.40
2022-09-24T15:48:09.558Z,17.30
2022-09-24T15:50:56.020Z,17.30
2022-09-24T15:53:43.792Z,17.30
2022-09-24T15:56:30.235Z,17.30
2022-09-24T15:59:16.802Z,17.30
2022-09-24T16:02:05.354Z,17.30
2022-09-24T16:04:52.128Z,17.40
2022-09-24T16:07:38.732Z,17.40
2022-09-24T16:10:26.631Z,17.40
2022-09-24T16:13:14.545Z,17.50
2022-09-24T16:16:05.338Z,17.50
2022-09-24T16:18:52.451Z,17.40
2022-09-24T16:21:39.181Z,17.30
2022-09-24T16:24:25.537Z,17.30
2022-09-24T16:27:13.501Z,17.20
2022-09-24T16:29:59.873Z,17.20
2022-09-24T16:32:46.355Z,17.20
2022-09-24T16:35:32.679Z,17.20
2022-09-24T16:38:23.053Z,17.20
2022-09-24T16:41:10.577Z,17.10
2022-09-24T16:43:58.693Z,17.00
2022-09-24T16:46:45.634Z,17.00
2022-09-24T16:49:32.174Z,16.90
2022-09-24T16:52:18.765Z,17.00
2022-09-24T16:55:06.275Z,16.90
2022-09-24T16:57:52.968Z,17.00
2022-09-24T17:00:43.737Z,17.00
2022-09-24T17:03:31.352Z,17.10
2022-09-24T17:06:19.551Z,17.10
2022-09-24T17:09:24.110Z,17.00
2022-09-24T17:12:11.179Z,17.10
2022-09-24T17:14:57.779Z,17.00
2022-09-24T17:17:49.934Z,16.90
2022-09-24T17:20:37.029Z,16.80
2022-09-24T17:23:23.361Z,16.80
2022-09-24T17:26:12.568Z,16.70
2022-09-24T17:28:59.124Z,16.60
2022-09-24T17:31:45.469Z,16.60
2022-09-24T17:34:33.611Z,16.60
2022-09-24T17:37:19.953Z,16.70
2022-09-24T17:40:07.917Z,16.70
2022-09-24T17:42:55.328Z,16.80
2022-09-24T17:45:41.769Z,16.70
2022-09-24T17:48:35.067Z,16.60
2022-09-24T17:51:24.813Z,16.50
2022-09-24T17:54:14.694Z,16.50
2022-09-24T17:57:01.925Z,16.40
2022-09-24T17:59:48.295Z,16.40
2022-09-24T18:02:34.817Z,16.30
2022-09-24T18:05:21.572Z,16.30
2022-09-24T18:08:10.160Z,16.40
2022-09-24T18:11:03.312Z,16.20
2022-09-24T18:13:52.483Z,16.20
2022-09-24T18:16:39.140Z,16.10
2022-09-24T18:19:26.147Z,16.10
2022-09-24T18:22:13.038Z,16.10
2022-09-24T18:25:06.015Z,16.00
2022-09-24T18:27:52.589Z,16.10
2022-09-24T18:30:38.881Z,16.10
2022-09-24T18:33:25.488Z,16.10
2022-09-24T18:36:13.827Z,16.00
2022-09-24T18:39:00.561Z,15.80
2022-09-24T18:41:48.442Z,15.60
2022-09-24T18:44:35.303Z,15.30
2022-09-24T18:47:21.762Z,15.40
2022-09-24T18:50:09.592Z,15.50
2022-09-24T18:52:55.895Z,15.60
2022-09-24T18:55:43.529Z,15.60
2022-09-24T18:58:31.498Z,15.60
2022-09-24T19:01:17.837Z,15.50
2022-09-24T19:04:04.743Z,15.50
2022-09-24T19:06:51.750Z,15.30
2022-09-24T19:09:38.139Z,15.20
2022-09-24T19:12:26.000Z,15.20
2022-09-24T19:15:14.120Z,15.20
2022-09-24T19:18:00.361Z,15.10
2022-09-24T19:20:48.590Z,15.00
2022-09-24T19:23:38.199Z,15.00
2022-09-24T19:26:26.420Z,14.90
2022-09-24T19:29:13.212Z,14.70
2022-09-24T19:32:01.260Z,14.70
2022-09-24T19:34:49.521Z,14.60
2022-09-24T19:37:35.882Z,14.50
2022-09-24T19:40:23.298Z,14.60
2022-09-24T19:43:09.938Z,14.60
2022-09-24T19:45:58.142Z,14.60
2022-09-24T19:48:47.360Z,14.70
2022-09-24T19:51:35.295Z,14.70
2022-09-24T19:54:21.809Z,14.90
2022-09-24T19:57:08.188Z,14.80
2022-09-24T19:59:54.407Z,14.80
2022-09-24T20:02:40.962Z,14.80
2022-09-24T20:05:28.651Z,14.80
2022-09-24T20:08:15.691Z,14.80
2022-09-24T20:11:04.685Z,14.80
2022-09-24T20:13:52.675Z,14.80
2022-09-24T20:16:42.620Z,14.70
2022-09-24T20:19:28.941Z,14.80
2022-09-24T20:22:17.540Z,14.70
2022-09-24T20:25:05.115Z,14.80
2022-09-24T20:27:53.211Z,14.80
2022-09-24T20:30:40.758Z,14.80
2022-09-24T20:33:30.782Z,14.80
2022-09-24T20:36:23.224Z,14.70
2022-09-24T20:39:12.014Z,14.80
2022-09-24T20:42:01.567Z,14.90
2022-09-24T20:44:48.940Z,14.90
2022-09-24T20:47:37.966Z,14.80
2022-09-24T20:50:24.540Z,14.90
2022-09-24T20:53:11.077Z,14.80
2022-09-24T20:56:00.118Z,14.80
2022-09-24T20:58:49.511Z,14.90
2022-09-24T21:01:36.299Z,14.90
2022-09-24T21:04:23.116Z,15.00
2022-09-24T21:07:09.712Z,14.90
2022-09-24T21:09:56.081Z,14.90
2022-09-24T21:12:48.709Z,15.00
2022-09-24T21:15:37.537Z,15.00
2022-09-24T21:18:32.143Z,15.00
2022-09-24T21:21:27.196Z,15.00
2022-09-24T21:24:15.451Z,14.90
2022-09-24T21:27:02.046Z,14.80
2022-09-24T21:29:49.905Z,14.60
2022-09-24T21:32:37.063Z,14.60
2022-09-24T21:35:23.667Z,14.70
2022-09-24T21:38:10.010Z,14.60
2022-09-24T21:40:57.728Z,14.60
2022-09-24T21:43:43.953Z,14.40
2022-09-24T21:46:31.795Z,14.30
2022-09-24T21:49:18.503Z,14.10
2022-09-24T21:52:06.649Z,14.10
2022-09-24T21:54:53.401Z,14.20
2022-09-24T21:57:39.992Z,14.30
2022-09-24T22:00:26.374Z,14.30
2022-09-24T22:03:14.223Z,14.30
2022-09-24T22:06:03.692Z,14.40
2022-09-24T22:08:51.209Z,14.40
2022-09-24T22:11:38.149Z,14.40
2022-09-24T22:14:24.688Z,14.40
2022-09-24T22:17:11.631Z,14.40
2022-09-24T22:19:59.641Z,14.30
2022-09-24T22:22:46.218Z,14.40
2022-09-24T22:25:32.710Z,14.40
2022-09-24T22:28:24.407Z,14.40
2022-09-24T22:31:13.309Z,14.40
2022-09-24T22:34:17.283Z,14.30
2022-09-24T22:37:07.014Z,14.40
2022-09-24T22:39:54.030Z,14.50
2022-09-24T22:42:40.428Z,14.50
2022-09-24T22:45:26.785Z,14.30
2022-09-24T22:48:13.336Z,14.10
2022-09-24T22:50:59.960Z,14.10
2022-09-24T22:53:48.057Z,14.10
2022-09-24T22:56:36.559Z,14.00
2022-09-24T22:59:23.213Z,14.10
2022-09-24T23:02:13.042Z,14.20
2022-09-24T23:05:00.393Z,14.30
2022-09-24T23:07:46.906Z,14.40
2022-09-24T23:10:34.966Z,14.40
2022-09-24T23:13:21.344Z,14.40
2022-09-24T23:16:10.236Z,14.30
2022-09-24T23:18:58.140Z,14.30
2022-09-24T23:21:45.664Z,14.30
2022-09-24T23:24:31.954Z,14.40
2022-09-24T23:27:20.217Z,14.40
2022-09-24T23:30:07.702Z,14.50
2022-09-24T23:32:54.185Z,14.50
2022-09-24T23:35:40.600Z,14.50
2022-09-24T23:38:27.209Z,14.50
2022-09-24T23:41:14.644Z,14.40
2022-09-24T23:44:03.063Z,14.30
2022-09-24T23:46:49.911Z,14.40
2022-09-24T23:49:36.248Z,14.30
2022-09-24T23:52:22.577Z,14.30
2022-09-24T23:55:09.696Z,14.30
2022-09-24T23:57:56.184Z,14.40
